createdAt,value
2022-10-29T00:00:16.021Z,11.87
2022-10-29T00:02:42.531Z,11.85
2022-10-29T00:05:09.363Z,11.77
2022-10-29T00:07:35.805Z,11.75
2022-10-29T00:10:02.480Z,11.82
2022-10-29T00:12:29.042Z,11.89
2022-10-29T00:14:55.524Z,11.96
2022-10-29T00:17:22.047Z,12.03
2022-10-29T00:19:48.966Z,11.93
2022-10-29T00:22:15.789Z,11.92
2022-10-29T00:24:42.281Z,11.90
2022-10-29T00:27:08.741Z,11.90
2022-10-29T00:29:35.176Z,11.95
2022-10-29T00:32:01.748Z,11.95
2022-10-29T00:34:29.140Z,11.88
2022-10-29T00:36:55.570Z,11.78
2022-10-29T00:39:22.004Z,11.69
2022-10-29T00:41:48.542Z,11.67
2022-10-29T00:44:14.894Z,11.63
2022-10-29T00:46:47.854Z,11.53
2022-10-29T00:49:16.829Z,11.48
2022-10-29T00:51:46.227Z,11.46
2022-10-29T00:54:16.812Z,11.53
2022-10-29T00:56:57.837Z,11.66
2022-10-29T00:59:25.155Z,11.55
2022-10-29T01:01:52.109Z,11.52
2022-10-29T01:04:20.656Z,11.52
2022-10-29T01:06:48.473Z,11.50
2022-10-29T01:09:14.943Z,11.60
2022-10-29T01:12:01.021Z,11.65
2022-10-29T01:15:12.961Z,11.58
2022-10-29T01:18:21.525Z,11.65
2022-10-29T01:21:27.918Z,11.63
2022-10-29T01:24:27.755Z,11.65
2022-10-29T01:27:24.654Z,11.62
2022-10-29T01:30:13.509Z,11.49
2022-10-29T01:32:56.035Z,11.47
2022-10-29T01:35:50.606Z,11.46
2022-10-29T01:38:29.522Z,11.51
2022-10-29T01:41:14.904Z,11.54
2022-10-29T01:44:11.777Z,11.54
2022-10-29T01:46:47.239Z,11.55
2022-10-29T01:49:22.790Z,11.53
2022-10-29T01:51:52.105Z,11.50
2022-10-29T01:54:18.533Z,11.44
2022-10-29T01:56:54.991Z,11.39
2022-10-29T01:59:35.641Z,11.41
2022-10-29T02:02:30.363Z,11.38
2022-10-29T02:05:04.751Z,11.01
2022-10-29T02:07:49.513Z,11.12
2022-10-29T02:10:43.370Z,11.15
2022-10-29T02:13:16.751Z,11.26
2022-10-29T02:15:50.098Z,11.25
2022-10-29T02:18:17.853Z,11.10
2022-10-29T02:20:46.492Z,11.09
2022-10-29T02:23:15.564Z,11.17
2022-10-29T02:25:42.509Z,11.16
2022-10-29T02:28:09.081Z,11.07
2022-10-29T02:30:35.731Z,11.12
2022-10-29T02:33:02.168Z,11.19
2022-10-29T02:35:28.661Z,11.19
2022-10-29T02:37:55.103Z,11.19
2022-10-29T02:40:21.524Z,11.20
2022-10-29T02:42:47.980Z,11.29
2022-10-29T02:45:14.537Z,11.29
2022-10-29T02:47:40.952Z,11.16
2022-10-29T02:50:08.298Z,11.20
2022-10-29T02:52:34.704Z,11.23
2022-10-29T02:55:01.140Z,11.16
2022-10-29T02:57:27.574Z,10.98
2022-10-29T02:59:54.002Z,10.91
2022-10-29T03:02:20.544Z,10.93
2022-10-29T03:04:47.085Z,10.97
2022-10-29T03:07:13.521Z,11.01
2022-10-29T03:09:39.956Z,11.01
2022-10-29T03:12:06.890Z,10.80
2022-10-29T03:14:33.316Z,10.78
2022-10-29T03:16:59.789Z,10.84
2022-10-29T03:19:26.196Z,10.77
2022-10-29T03:21:52.664Z,10.74
2022-10-29T03:24:19.124Z,10.53
2022-10-29T03:26:45.560Z,10.55
2022-10-29T03:29:11.977Z,10.64
2022-10-29T03:31:38.410Z,10.56
2022-10-29T03:34:04.861Z,10.47
2022-10-29T03:36:31.368Z,10.45
2022-10-29T03:38:57.807Z,10.50
2022-10-29T03:41:24.253Z,10.57
2022-10-29T03:43:51.097Z,10.61
2022-10-29T03:46:17.661Z,10.70
2022-10-29T03:48:44.102Z,10.77
2022-10-29T03:51:10.742Z,10.82
2022-10-29T03:53:37.538Z,10.83
2022-10-29T03:56:04.861Z,10.73
2022-10-29T03:58:31.405Z,10.69
2022-10-29T04:01:10.139Z,10.50
2022-10-29T04:03:41.253Z,10.51
2022-10-29T04:06:14.497Z,10.47
2022-10-29T04:08:42.085Z,10.40
2022-10-29T04:11:13.596Z,10.40
2022-10-29T04:13:40.219Z,10.42
2022-10-29T04:16:07.072Z,10.35
2022-10-29T04:18:33.619Z,10.29
2022-10-29T04:26:48.111Z,10.21
2022-10-29T04:29:24.861Z,9.98
2022-10-29T04:31:51.295Z,9.98
2022-10-29T04:34:17.761Z,9.97
2022-10-29T04:36:44.214Z,10.14
2022-10-29T04:39:10.629Z,10.26
2022-10-29T04:41:37.077Z,10.39
2022-10-29T04:44:03.602Z,10.41
2022-10-29T04:46:30.062Z,10.33
2022-10-29T04:48:56.592Z,10.27
2022-10-29T04:51:26.036Z,10.30
2022-10-29T04:53:53.202Z,10.46
2022-10-29T04:56:19.781Z,10.56
2022-10-29T04:58:46.269Z,10.58
2022-10-29T05:01:12.948Z,10.52
2022-10-29T05:03:39.575Z,10.49
2022-10-29T05:06:06.630Z,10.56
2022-10-29T05:08:33.654Z,10.45
2022-10-29T05:11:06.736Z,10.36
2022-10-29T05:13:34.248Z,10.43
2022-10-29T05:16:01.052Z,10.49
2022-10-29T05:18:27.514Z,10.43
2022-10-29T05:20:55.698Z,10.45
2022-10-29T05:23:23.095Z,10.54
2022-10-29T05:25:51.886Z,10.66
2022-10-29T05:28:22.030Z,10.79
2022-10-29T05:30:50.815Z,10.82
2022-10-29T05:33:22.195Z,10.75
2022-10-29T05:35:48.728Z,10.71
2022-10-29T05:38:15.912Z,10.76
2022-10-29T05:40:44.898Z,10.87
2022-10-29T05:43:13.794Z,10.90
2022-10-29T05:45:41.527Z,10.86
2022-10-29T05:48:09.809Z,10.89
2022-10-29T05:50:36.531Z,10.95
2022-10-29T05:53:06.570Z,10.90
2022-10-29T05:55:35.123Z,10.81
2022-10-29T05:58:06.570Z,10.80
2022-10-29T06:00:37.362Z,10.90
2022-10-29T06:03:04.029Z,11.00
2022-10-29T06:05:30.543Z,11.06
2022-10-29T06:07:59.331Z,10.98
2022-10-29T06:10:29.007Z,10.91
2022-10-29T06:12:55.672Z,10.80
2022-10-29T06:15:22.828Z,10.73
2022-10-29T06:17:50.084Z,10.80
2022-10-29T06:20:20.854Z,10.89
2022-10-29T06:22:48.075Z,11.00
2022-10-29T06:25:14.541Z,11.05
2022-10-29T06:27:40.973Z,10.99
2022-10-29T06:30:08.461Z,10.97
2022-10-29T06:32:34.905Z,10.93
2022-10-29T06:35:01.346Z,10.90
2022-10-29T06:37:29.590Z,10.84
2022-10-29T06:39:56.079Z,10.89
2022-10-29T06:42:22.504Z,11.00
2022-10-29T06:44:48.921Z,11.06
2022-10-29T06:47:15.344Z,11.01
2022-10-29T06:49:41.785Z,11.06
2022-10-29T06:52:08.235Z,11.18
2022-10-29T06:54:34.765Z,11.29
2022-10-29T06:57:01.204Z,11.35
2022-10-29T06:59:27.620Z,11.41
2022-10-29T07:01:54.100Z,11.43
2022-10-29T07:04:21.105Z,11.45
2022-10-29T07:06:47.634Z,11.45
2022-10-29T07:09:14.207Z,11.47
2022-10-29T07:11:40.734Z,11.44
2022-10-29T07:14:09.619Z,11.53
2022-10-29T07:16:36.880Z,11.68
2022-10-29T07:19:04.677Z,11.80
2022-10-29T07:21:31.343Z,11.94
2022-10-29T07:23:57.786Z,12.02
2022-10-29T07:26:24.296Z,12.04
2022-10-29T07:28:50.769Z,12.07
2022-10-29T07:31:17.279Z,12.08
2022-10-29T07:33:43.813Z,12.11
2022-10-29T07:36:10.243Z,12.18
2022-10-29T07:38:36.690Z,12.23
2022-10-29T07:41:03.141Z,12.16
2022-10-29T07:43:29.569Z,12.18
2022-10-29T07:45:56.041Z,12.13
2022-10-29T07:48:22.637Z,12.15
2022-10-29T07:50:49.868Z,12.20
2022-10-29T07:53:16.524Z,12.21
2022-10-29T07:55:42.976Z,12.31
2022-10-29T07:58:12.355Z,12.40
2022-10-29T08:00:41.308Z,12.54
2022-10-29T08:03:07.903Z,12.63
2022-10-29T08:05:34.794Z,12.74
2022-10-29T08:08:01.332Z,12.85
2022-10-29T08:10:29.901Z,12.91
2022-10-29T08:12:59.974Z,12.96
2022-10-29T08:15:30.759Z,12.96
2022-10-29T08:17:58.277Z,13.03
2022-10-29T08:20:28.138Z,13.12
2022-10-29T08:22:55.164Z,13.21
2022-10-29T08:25:21.993Z,13.29
2022-10-29T08:28:05.513Z,13.31
2022-10-29T08:30:32.874Z,13.44
2022-10-29T08:33:00.295Z,13.51
2022-10-29T08:35:27.969Z,13.56
2022-10-29T08:37:54.534Z,13.57
2022-10-29T08:40:29.624Z,13.51
2022-10-29T08:43:36.295Z,13.55
2022-10-29T08:46:03.704Z,13.64
2022-10-29T08:48:58.145Z,13.70
2022-10-29T08:51:34.316Z,13.86
2022-10-29T08:54:25.614Z,14.02
2022-10-29T08:56:54.820Z,14.05
2022-10-29T08:59:24.829Z,14.09
2022-10-29T09:01:53.502Z,14.22
2022-10-29T09:04:32.936Z,14.24
2022-10-29T09:07:41.519Z,14.17
2022-10-29T09:10:23.090Z,14.32
2022-10-29T09:13:18.405Z,14.39
2022-10-29T09:16:27.979Z,14.50
2022-10-29T09:19:40.473Z,14.63
2022-10-29T09:22:24.537Z,14.70
2022-10-29T09:25:15.000Z,14.79
2022-10-29T09:28:25.649Z,14.86
2022-10-29T09:31:16.242Z,14.96
2022-10-29T09:33:48.186Z,15.08
2022-10-29T09:36:18.984Z,15.21
2022-10-29T09:39:04.156Z,15.26
2022-10-29T09:41:34.210Z,15.39
2022-10-29T09:44:33.417Z,15.44
2022-10-29T09:47:21.246Z,15.49
2022-10-29T09:50:08.697Z,15.61
2022-10-29T09:52:41.266Z,15.66
2022-10-29T09:55:23.065Z,15.75
2022-10-29T09:57:49.993Z,15.85
2022-10-29T10:00:29.936Z,15.85
2022-10-29T10:03:02.202Z,15.89
2022-10-29T10:05:34.625Z,15.91
2022-10-29T10:08:14.560Z,15.94
2022-10-29T10:11:05.054Z,16.03
2022-10-29T10:13:35.622Z,16.14
2022-10-29T10:16:06.017Z,16.14
2022-10-29T10:18:32.463Z,16.14
2022-10-29T10:21:23.661Z,16.18
2022-10-29T10:23:52.726Z,16.34
2022-10-29T10:26:42.843Z,16.46
2022-10-29T10:29:18.563Z,16.62
2022-10-29T10:31:55.211Z,16.74
2022-10-29T10:34:35.661Z,16.82
2022-10-29T10:37:17.272Z,16.90
2022-10-29T10:39:49.923Z,16.95
2022-10-29T10:42:32.328Z,17.04
2022-10-29T10:45:22.837Z,17.16
2022-10-29T10:47:57.309Z,17.26
2022-10-29T10:50:33.577Z,17.34
2022-10-29T10:53:06.604Z,17.40
2022-10-29T10:55:40.392Z,17.53
2022-10-29T10:58:29.471Z,17.58
2022-10-29T11:01:11.984Z,17.62
2022-10-29T11:03:47.100Z,17.69
2022-10-29T11:06:31.818Z,17.79
2022-10-29T11:09:32.003Z,17.85
2022-10-29T11:12:10.999Z,17.97
2022-10-29T11:14:52.579Z,18.08
2022-10-29T11:17:32.014Z,18.15
2022-10-29T11:20:23.743Z,18.23
2022-10-29T11:23:23.545Z,18.33
2022-10-29T11:26:22.088Z,18.31
2022-10-29T11:29:22.850Z,18.46
2022-10-29T11:32:20.642Z,18.55
2022-10-29T11:35:24.084Z,18.61
2022-10-29T11:38:05.941Z,18.65
2022-10-29T11:40:49.830Z,18.81
2022-10-29T11:43:20.905Z,18.89
2022-10-29T11:45:57.525Z,19.00
2022-10-29T11:48:58.094Z,18.98
2022-10-29T11:51:53.927Z,19.06
2022-10-29T11:54:41.321Z,19.17
2022-10-29T11:57:44.198Z,19.23
2022-10-29T12:00:22.155Z,19.26
2022-10-29T12:03:33.298Z,19.36
2022-10-29T12:06:32.507Z,19.32
2022-10-29T12:09:34.697Z,19.38
2022-10-29T12:12:21.373Z,19.48
2022-10-29T12:15:01.441Z,19.24
2022-10-29T12:17:49.672Z,19.47
2022-10-29T12:20:29.425Z,19.64
2022-10-29T12:23:25.112Z,19.68
2022-10-29T12:26:24.274Z,19.70
2022-10-29T12:29:03.980Z,19.73
2022-10-29T12:32:14.104Z,19.73
2022-10-29T12:35:06.448Z,19.70
2022-10-29T12:38:23.434Z,19.66
2022-10-29T12:41:03.879Z,19.77
2022-10-29T12:43:36.313Z,19.85
2022-10-29T12:46:35.928Z,19.81
2022-10-29T12:49:56.558Z,19.78
2022-10-29T12:52:47.321Z,19.69
2022-10-29T12:55:16.949Z,19.74
2022-10-29T12:57:43.418Z,19.77
2022-10-29T13:00:30.902Z,19.74
2022-10-29T13:02:58.400Z,19.75
2022-10-29T13:05:34.277Z,19.72
2022-10-29T13:08:03.418Z,19.77
2022-10-29T13:10:32.866Z,19.80
2022-10-29T13:12:59.223Z,19.81
2022-10-29T13:15:49.257Z,19.73
2022-10-29T13:18:27.526Z,19.70
2022-10-29T13:20:55.395Z,19.72
2022-10-29T13:23:21.749Z,19.75
2022-10-29T13:26:53.898Z,19.70
2022-10-29T13:30:25.667Z,19.58
2022-10-29T13:32:56.084Z,19.67
2022-10-29T13:35:22.626Z,19.74
2022-10-29T13:38:13.416Z,19.76
2022-10-29T13:41:40.092Z,19.65
2022-10-29T13:44:14.455Z,19.71
2022-10-29T13:47:01.780Z,19.70
2022-10-29T13:49:37.007Z,19.67
2022-10-29T13:52:16.287Z,19.67
2022-10-29T13:55:01.099Z,19.66
2022-10-29T13:57:50.792Z,19.59
2022-10-29T14:00:20.830Z,19.53
2022-10-29T14:03:22.402Z,19.47
2022-10-29T14:06:08.925Z,19.51
2022-10-29T14:08:44.174Z,19.59
2022-10-29T14:11:25.219Z,19.58
2022-10-29T14:14:00.845Z,19.67
2022-10-29T14:16:32.455Z,19.66
2022-10-29T14:19:13.613Z,19.67
2022-10-29T14:21:40.962Z,19.65
2022-10-29T14:24:10.949Z,19.69
2022-10-29T14:26:42.318Z,19.72
2022-10-29T14:29:23.633Z,19.71
2022-10-29T14:32:15.452Z,19.74
2022-10-29T14:34:45.099Z,19.76
2022-10-29T14:37:41.216Z,19.73
2022-10-29T14:40:22.342Z,19.62
2022-10-29T14:42:56.416Z,19.61
2022-10-29T14:45:28.541Z,19.57
2022-10-29T14:48:05.288Z,19.45
2022-10-29T14:50:31.871Z,19.42
2022-10-29T14:53:03.712Z,19.35
2022-10-29T14:55:46.674Z,19.27
2022-10-29T14:58:20.830Z,19.20
2022-10-29T15:01:02.049Z,19.11
2022-10-29T15:03:33.989Z,19.08
2022-10-29T15:06:26.281Z,18.99
2022-10-29T15:08:58.807Z,18.97
2022-10-29T15:11:57.669Z,18.75
2022-10-29T15:15:27.171Z,18.62
2022-10-29T15:17:59.622Z,18.65
2022-10-29T15:20:40.776Z,18.62
2022-10-29T15:23:23.424Z,18.55
2022-10-29T15:25:58.074Z,18.56
2022-10-29T15:28:28.898Z,18.49
2022-10-29T15:30:55.679Z,18.42
2022-10-29T15:33:27.813Z,18.21
2022-10-29T15:35:59.746Z,18.07
2022-10-29T15:38:35.257Z,17.95
2022-10-29T15:41:07.758Z,17.92
2022-10-29T15:43:56.912Z,17.95
2022-10-29T15:46:48.025Z,17.89
2022-10-29T15:49:15.921Z,17.84
2022-10-29T15:51:42.809Z,17.81
2022-10-29T15:54:16.475Z,17.84
2022-10-29T15:56:43.121Z,17.75
2022-10-29T15:59:14.151Z,17.67
2022-10-29T16:01:41.026Z,17.58
2022-10-29T16:04:09.349Z,17.53
2022-10-29T16:06:36.111Z,17.49
2022-10-29T16:09:03.149Z,17.41
2022-10-29T16:11:29.660Z,17.39
2022-10-29T16:13:56.098Z,17.33
2022-10-29T16:16:25.128Z,17.25
2022-10-29T16:18:52.612Z,17.11
2022-10-29T16:21:22.968Z,17.02
2022-10-29T16:23:51.267Z,17.00
2022-10-29T16:26:21.626Z,17.02
2022-10-29T16:28:48.312Z,16.99
2022-10-29T16:31:29.636Z,16.79
2022-10-29T16:34:04.111Z,16.63
2022-10-29T16:36:30.556Z,16.61
2022-10-29T16:38:57.040Z,16.55
2022-10-29T16:41:23.582Z,16.51
2022-10-29T16:43:50.128Z,16.47
2022-10-29T16:46:17.075Z,16.40
2022-10-29T16:48:44.025Z,16.41
2022-10-29T16:51:10.581Z,16.28
2022-10-29T16:53:37.037Z,16.24
2022-10-29T16:56:04.538Z,16.23
2022-10-29T16:58:31.063Z,16.17
2022-10-29T17:01:06.645Z,16.08
2022-10-29T17:03:34.201Z,16.14
2022-10-29T17:06:08.115Z,16.10
2022-10-29T17:08:36.439Z,16.11
2022-10-29T17:11:06.306Z,16.06
2022-10-29T17:13:34.774Z,15.94
2022-10-29T17:16:05.599Z,15.90
2022-10-29T17:18:32.377Z,15.87
2022-10-29T17:21:01.156Z,15.84
2022-10-29T17:23:28.978Z,15.76
2022-10-29T17:25:57.933Z,15.75
2022-10-29T17:28:27.209Z,15.67
2022-10-29T17:30:54.019Z,15.57
2022-10-29T17:33:20.733Z,15.46
2022-10-29T17:35:47.644Z,15.38
2022-10-29T17:38:14.247Z,15.33
2022-10-29T17:40:44.252Z,15.25
2022-10-29T17:43:10.741Z,15.21
2022-10-29T17:45:37.223Z,15.21
2022-10-29T17:48:03.914Z,15.26
2022-10-29T17:50:30.410Z,15.24
2022-10-29T17:52:57.783Z,15.24
2022-10-29T17:55:24.510Z,15.21
2022-10-29T17:57:50.942Z,15.00
2022-10-29T18:00:17.763Z,15.04
2022-10-29T18:02:44.243Z,15.04
2022-10-29T18:05:10.810Z,15.06
2022-10-29T18:07:37.312Z,14.97
2022-10-29T18:10:04.310Z,14.93
2022-10-29T18:12:30.809Z,14.92
2022-10-29T18:14:57.270Z,14.82
2022-10-29T18:17:23.871Z,14.76
2022-10-29T18:19:50.330Z,14.67
2022-10-29T18:22:16.788Z,14.59
2022-10-29T18:24:43.221Z,14.60
2022-10-29T18:27:09.645Z,14.58
2022-10-29T18:29:36.137Z,14.54
2022-10-29T18:32:02.597Z,14.46
2022-10-29T18:34:29.170Z,14.36
2022-10-29T18:36:55.642Z,14.39
2022-10-29T18:39:22.102Z,14.29
2022-10-29T18:41:48.539Z,14.25
2022-10-29T18:44:14.985Z,14.12
2022-10-29T18:46:41.532Z,14.11
2022-10-29T18:49:12.890Z,14.10
2022-10-29T18:51:39.820Z,14.01
2022-10-29T18:54:06.277Z,13.96
2022-10-29T18:56:32.800Z,13.93
2022-10-29T18:59:00.387Z,13.90
2022-10-29T19:01:31.912Z,13.88
2022-10-29T19:04:05.681Z,13.90
2022-10-29T19:06:35.170Z,13.99
2022-10-29T19:09:06.731Z,14.04
2022-10-29T19:11:33.257Z,14.04
2022-10-29T19:14:03.095Z,13.95
2022-10-29T19:16:32.107Z,13.73
2022-10-29T19:19:03.023Z,13.66
2022-10-29T19:21:30.689Z,13.70
2022-10-29T19:23:59.705Z,13.70
2022-10-29T19:26:30.637Z,13.62
2022-10-29T19:29:00.839Z,13.53
2022-10-29T19:31:30.142Z,13.45
2022-10-29T19:34:00.471Z,13.51
2022-10-29T19:36:28.967Z,13.53
2022-10-29T19:38:56.424Z,13.58
2022-10-29T19:41:23.705Z,13.53
2022-10-29T19:43:50.468Z,13.38
2022-10-29T19:46:22.677Z,13.36
2022-10-29T19:48:52.618Z,13.35
2022-10-29T19:51:20.802Z,13.23
2022-10-29T19:53:47.892Z,13.23
2022-10-29T19:56:16.629Z,13.28
2022-10-29T19:58:44.033Z,13.31
2022-10-29T20:01:17.479Z,13.34
2022-10-29T20:03:45.720Z,13.30
2022-10-29T20:06:12.631Z,13.29
2022-10-29T20:08:39.209Z,13.33
2022-10-29T20:11:06.724Z,13.33
2022-10-29T20:13:33.781Z,13.28
2022-10-29T20:16:01.294Z,13.06
2022-10-29T20:18:27.809Z,13.03
2022-10-29T20:20:56.339Z,13.05
2022-10-29T20:23:25.491Z,13.07
2022-10-29T20:25:52.128Z,13.09
2022-10-29T20:28:18.631Z,13.03
2022-10-29T20:30:45.145Z,12.93
2022-10-29T20:33:11.610Z,12.90
2022-10-29T20:35:38.174Z,12.92
2022-10-29T20:38:05.720Z,12.98
2022-10-29T20:40:32.260Z,13.02
2022-10-29T20:42:58.730Z,12.99
2022-10-29T20:45:25.411Z,12.96
2022-10-29T20:47:51.855Z,12.92
2022-10-29T20:50:18.352Z,12.66
2022-10-29T20:52:48.626Z,12.58
2022-10-29T20:55:16.249Z,12.59
2022-10-29T20:57:42.760Z,12.60
2022-10-29T21:00:10.221Z,12.62
2022-10-29T21:02:36.750Z,12.61
2022-10-29T21:05:03.693Z,12.62
2022-10-29T21:07:30.112Z,12.58
2022-10-29T21:09:56.557Z,12.40
2022-10-29T21:12:23.030Z,12.34
2022-10-29T21:14:49.476Z,12.27
2022-10-29T21:17:15.964Z,12.19
2022-10-29T21:19:42.450Z,12.20
2022-10-29T21:22:08.964Z,12.19
2022-10-29T21:24:35.715Z,12.09
2022-10-29T21:27:02.298Z,12.08
2022-10-29T21:29:28.777Z,12.14
2022-10-29T21:31:55.222Z,12.02
2022-10-29T21:34:22.726Z,11.89
2022-10-29T21:36:49.561Z,11.77
2022-10-29T21:39:16.019Z,11.83
2022-10-29T21:41:42.476Z,11.86
2022-10-29T21:44:08.914Z,11.98
2022-10-29T21:46:35.413Z,11.93
2022-10-29T21:49:02.042Z,11.79
2022-10-29T21:51:28.461Z,11.70
2022-10-29T21:53:55.063Z,11.68
2022-10-29T21:56:21.568Z,11.58
2022-10-29T21:58:52.237Z,11.56
2022-10-29T22:01:18.929Z,11.62
2022-10-29T22:03:47.398Z,11.72
2022-10-29T22:06:23.035Z,11.79
2022-10-29T22:08:59.163Z,11.89
2022-10-29T22:11:28.464Z,11.97
2022-10-29T22:13:55.252Z,12.02
2022-10-29T22:16:22.033Z,12.02
2022-10-29T22:18:49.784Z,12.05
2022-10-29T22:21:21.324Z,12.01
2022-10-29T22:23:54.331Z,11.87
2022-10-29T22:26:25.701Z,11.81
2022-10-29T22:28:52.504Z,11.84
2022-10-29T22:31:21.896Z,11.88
2022-10-29T22:33:49.429Z,11.83
2022-10-29T22:36:22.610Z,11.79
2022-10-29T22:38:54.471Z,11.69
2022-10-29T22:41:21.078Z,11.74
2022-10-29T22:43:47.934Z,11.83
2022-10-29T22:46:16.874Z,11.87
2022-10-29T22:48:43.964Z,11.86
2022-10-29T22:51:18.967Z,11.92
2022-10-29T22:53:46.230Z,12.04
2022-10-29T22:56:29.170Z,12.07
2022-10-29T22:58:56.804Z,12.04
2022-10-29T23:01:28.103Z,11.98
2022-10-29T23:03:55.336Z,11.92
2022-10-29T23:06:24.123Z,11.94
2022-10-29T23:08:53.817Z,12.00
2022-10-29T23:11:26.968Z,11.99
2022-10-29T23:13:57.310Z,12.06
2022-10-29T23:16:27.278Z,12.11
2022-10-29T23:19:00.839Z,12.14
2022-10-29T23:21:28.224Z,12.19
2022-10-29T23:23:56.134Z,12.04
2022-10-29T23:26:24.972Z,12.00
2022-10-29T23:28:51.808Z,12.01
2022-10-29T23:31:22.539Z,12.03
2022-10-29T23:33:52.686Z,11.91
2022-10-29T23:36:22.727Z,11.82
2022-10-29T23:38:58.235Z,11.83
2022-10-29T23:41:26.420Z,11.85
2022-10-29T23:43:52.986Z,11.87
2022-10-29T23:46:19.648Z,11.86
2022-10-29T23:48:46.091Z,11.77
2022-10-29T23:51:12.558Z,11.74
2022-10-29T23:53:39.086Z,11.77
2022-10-29T23:56:05.937Z,11.75
2022-10-29T23:58:32.535Z,11.78
